createdAt,value
2018-11-25T00:00:32.570Z,24.93
2018-11-25T00:03:01.853Z,25.33
2018-11-25T00:05:31.145Z,23.67
2018-11-25T00:08:00.460Z,25.27
2018-11-25T00:10:30.695Z,26.23
2018-11-25T00:12:59.882Z,26.60
2018-11-25T00:15:29.065Z,26.83
2018-11-25T00:17:58.336Z,26.87
2018-11-25T00:20:27.512Z,27.47
2018-11-25T00:23:00.484Z,26.23
2018-11-25T00:25:29.685Z,29.00
2018-11-25T00:27:59.026Z,26.47
2018-11-25T00:30:28.232Z,27.67
2018-11-25T00:32:57.833Z,25.30
2018-11-25T00:35:27.474Z,22.20
2018-11-25T00:37:56.669Z,27.50
2018-11-25T00:40:25.857Z,26.57
2018-11-25T00:42:55.046Z,25.40
2018-11-25T00:45:25.383Z,24.20
2018-11-25T00:47:55.035Z,24.77
2018-11-25T00:50:24.207Z,25.40
2018-11-25T00:52:53.438Z,24.80
2018-11-25T00:55:22.595Z,23.30
2018-11-25T00:57:52.445Z,25.73
2018-11-25T01:00:22.209Z,27.53
2018-11-25T01:02:51.557Z,28.13
2018-11-25T01:05:20.744Z,27.93
2018-11-25T01:07:50.046Z,24.43
2018-11-25T01:10:20.854Z,34.80
2018-11-25T01:12:50.490Z,24.53
2018-11-25T01:15:19.836Z,26.37
2018-11-25T01:17:49.014Z,27.80
2018-11-25T01:20:20.877Z,25.87
2018-11-25T01:22:50.058Z,32.63
2018-11-25T01:25:19.657Z,26.90
2018-11-25T01:27:48.954Z,28.10
2018-11-25T01:30:18.649Z,28.07
2018-11-25T01:32:48.789Z,31.87
2018-11-25T01:35:19.355Z,27.77
2018-11-25T01:37:49.068Z,28.67
2018-11-25T01:40:18.720Z,29.83
2018-11-25T01:42:48.362Z,30.43
2018-11-25T01:45:18.382Z,27.50
2018-11-25T01:47:47.667Z,27.50
2018-11-25T01:50:18.364Z,29.27
2018-11-25T01:52:48.530Z,27.83
2018-11-25T01:55:19.429Z,25.03
2018-11-25T01:57:48.752Z,28.47
2018-11-25T02:00:20.741Z,26.60
2018-11-25T02:02:51.178Z,25.50
2018-11-25T02:05:20.634Z,25.30
2018-11-25T02:07:50.773Z,29.50
2018-11-25T02:10:20.113Z,24.33
2018-11-25T02:12:49.306Z,26.13
2018-11-25T02:15:20.254Z,26.83
2018-11-25T02:17:49.452Z,26.00
2018-11-25T02:20:22.777Z,24.83
2018-11-25T02:22:53.050Z,27.77
2018-11-25T02:25:23.738Z,26.97
2018-11-25T02:27:52.898Z,26.63
2018-11-25T02:30:22.076Z,26.40
2018-11-25T02:32:51.522Z,28.53
2018-11-25T02:35:20.793Z,28.00
2018-11-25T02:37:52.181Z,30.10
2018-11-25T02:40:21.345Z,27.93
2018-11-25T02:42:50.533Z,28.27
2018-11-25T02:45:20.030Z,29.80
2018-11-25T02:47:49.297Z,30.93
2018-11-25T02:50:27.011Z,29.10
2018-11-25T02:52:57.252Z,29.80
2018-11-25T02:55:26.987Z,27.37
2018-11-25T02:57:57.423Z,29.07
2018-11-25T03:00:28.643Z,27.03
2018-11-25T03:02:57.838Z,25.77
2018-11-25T03:05:27.043Z,25.17
2018-11-25T03:07:56.236Z,30.67
2018-11-25T03:10:25.406Z,26.87
2018-11-25T03:12:55.593Z,29.37
2018-11-25T03:15:24.774Z,27.47
2018-11-25T03:17:54.031Z,26.33
2018-11-25T03:20:24.156Z,27.30
2018-11-25T03:22:53.351Z,24.60
2018-11-25T03:25:24.832Z,27.90
2018-11-25T03:27:54.371Z,28.27
2018-11-25T03:30:23.550Z,27.43
2018-11-25T03:32:53.639Z,26.80
2018-11-25T03:35:23.129Z,27.63
2018-11-25T03:37:52.919Z,25.37
2018-11-25T03:40:22.094Z,26.60
2018-11-25T03:42:51.286Z,27.10
2018-11-25T03:45:21.305Z,26.17
2018-11-25T03:47:52.321Z,25.90
2018-11-25T03:50:21.983Z,28.77
2018-11-25T03:52:51.130Z,24.90
2018-11-25T03:55:20.419Z,26.43
2018-11-25T03:57:49.676Z,25.90
2018-11-25T04:00:22.130Z,25.37
2018-11-25T04:02:53.000Z,27.63
2018-11-25T04:05:22.178Z,26.07
2018-11-25T04:07:51.402Z,26.77
2018-11-25T04:10:22.337Z,25.80
2018-11-25T04:12:51.577Z,25.83
2018-11-25T04:15:21.291Z,28.63
2018-11-25T04:17:50.487Z,28.00
2018-11-25T04:20:21.283Z,26.13
2018-11-25T04:22:52.562Z,27.27
2018-11-25T04:25:21.736Z,25.50
2018-11-25T04:27:50.908Z,24.50
2018-11-25T04:30:20.583Z,30.63
2018-11-25T04:32:51.418Z,27.07
2018-11-25T04:35:20.603Z,26.80
2018-11-25T04:37:49.799Z,24.60
2018-11-25T04:40:19.469Z,27.03
2018-11-25T04:42:48.663Z,26.73
2018-11-25T04:45:18.785Z,25.50
2018-11-25T04:47:48.174Z,25.83
2018-11-25T04:50:19.822Z,29.07
2018-11-25T04:52:49.109Z,27.47
2018-11-25T04:55:19.088Z,28.10
2018-11-25T04:57:51.904Z,27.23
2018-11-25T05:00:21.353Z,26.23
2018-11-25T05:02:51.576Z,27.73
2018-11-25T05:05:21.998Z,35.60
2018-11-25T05:07:51.743Z,43.13
2018-11-25T05:10:20.916Z,43.47
2018-11-25T05:12:50.080Z,46.33
2018-11-25T05:15:20.779Z,45.80
2018-11-25T05:17:50.676Z,50.50
2018-11-25T05:20:21.448Z,50.27
2018-11-25T05:22:50.678Z,46.40
2018-11-25T05:25:20.415Z,49.33
2018-11-25T05:27:50.764Z,46.83
2018-11-25T05:30:20.811Z,50.53
2018-11-25T05:32:50.055Z,46.90
2018-11-25T05:35:20.373Z,48.53
2018-11-25T05:37:50.042Z,49.07
2018-11-25T05:40:19.732Z,48.50
2018-11-25T05:42:49.103Z,51.33
2018-11-25T05:45:19.236Z,51.17
2018-11-25T05:47:48.565Z,50.67
2018-11-25T05:50:19.825Z,49.57
2018-11-25T05:52:49.102Z,50.97
2018-11-25T05:55:18.359Z,48.67
2018-11-25T05:57:47.581Z,48.20
2018-11-25T06:00:20.330Z,49.30
2018-11-25T06:02:49.982Z,52.63
2018-11-25T06:05:19.139Z,53.00
2018-11-25T06:07:48.324Z,53.13
2018-11-25T06:10:17.623Z,50.57
2018-11-25T06:12:48.176Z,51.60
2018-11-25T06:15:17.378Z,51.77
2018-11-25T06:17:47.019Z,57.87
2018-11-25T06:20:17.093Z,57.77
2018-11-25T06:22:47.265Z,56.70
2018-11-25T06:25:17.991Z,57.57
2018-11-25T06:27:47.188Z,56.77
2018-11-25T06:30:17.423Z,56.20
2018-11-25T06:32:46.616Z,57.83
2018-11-25T06:35:19.027Z,53.87
2018-11-25T06:37:48.287Z,54.57
2018-11-25T06:40:19.472Z,50.90
2018-11-25T06:42:48.806Z,57.07
2018-11-25T06:45:28.098Z,57.27
2018-11-25T06:47:58.130Z,52.10
2018-11-25T06:50:27.345Z,54.47
2018-11-25T06:52:57.792Z,51.70
2018-11-25T06:55:27.532Z,54.00
2018-11-25T06:57:57.157Z,52.13
2018-11-25T07:00:26.659Z,51.97
2018-11-25T07:02:55.925Z,46.73
2018-11-25T07:05:25.100Z,53.10
2018-11-25T07:07:54.744Z,53.43
2018-11-25T07:10:24.501Z,59.83
2018-11-25T07:12:55.341Z,62.07
2018-11-25T07:15:24.564Z,57.03
2018-11-25T07:17:53.715Z,56.57
2018-11-25T07:20:24.679Z,56.97
2018-11-25T07:23:57.407Z,54.70
2018-11-25T07:26:27.102Z,53.27
2018-11-25T07:28:56.286Z,55.00
2018-11-25T07:31:25.881Z,51.80
2018-11-25T07:33:55.065Z,49.20
2018-11-25T07:36:24.804Z,47.53
2018-11-25T07:38:54.069Z,49.47
2018-11-25T07:41:23.238Z,56.30
2018-11-25T07:43:53.374Z,47.77
2018-11-25T07:46:22.562Z,52.63
2018-11-25T07:48:52.844Z,50.70
2018-11-25T07:51:22.028Z,53.23
2018-11-25T07:53:51.533Z,48.97
2018-11-25T07:56:21.562Z,51.70
2018-11-25T07:58:50.739Z,51.63
2018-11-25T08:01:20.529Z,52.67
2018-11-25T08:03:49.721Z,55.53
2018-11-25T08:06:18.909Z,54.53
2018-11-25T08:08:49.485Z,55.40
2018-11-25T08:11:19.687Z,53.80
2018-11-25T08:13:49.322Z,56.53
2018-11-25T08:16:18.581Z,56.80
2018-11-25T08:18:47.926Z,55.33
2018-11-25T08:21:17.682Z,56.60
2018-11-25T08:23:46.866Z,58.53
2018-11-25T08:26:16.819Z,59.17
2018-11-25T08:28:46.003Z,57.43
2018-11-25T08:31:15.191Z,58.63
2018-11-25T08:33:45.714Z,57.30
2018-11-25T08:36:14.908Z,56.53
2018-11-25T08:38:44.520Z,58.50
2018-11-25T08:41:13.739Z,61.43
2018-11-25T08:43:42.939Z,59.53
2018-11-25T08:46:12.607Z,60.23
2018-11-25T08:48:42.726Z,53.57
2018-11-25T08:51:12.490Z,54.10
2018-11-25T08:53:41.834Z,55.03
2018-11-25T08:56:12.949Z,56.60
2018-11-25T08:58:42.582Z,54.07
2018-11-25T09:01:11.742Z,58.73
2018-11-25T09:03:40.992Z,56.57
2018-11-25T09:06:10.247Z,57.77
2018-11-25T09:08:40.257Z,55.67
2018-11-25T09:11:09.710Z,58.20
2018-11-25T09:13:40.435Z,60.40
2018-11-25T09:16:09.644Z,55.13
2018-11-25T09:18:38.903Z,56.93
2018-11-25T09:21:09.689Z,57.07
2018-11-25T09:23:38.884Z,55.17
2018-11-25T09:26:09.423Z,60.47
2018-11-25T09:28:38.647Z,61.80
2018-11-25T09:31:07.829Z,59.40
2018-11-25T09:33:38.107Z,60.73
2018-11-25T09:36:07.250Z,61.87
2018-11-25T09:38:36.453Z,62.07
2018-11-25T09:41:06.060Z,59.27
2018-11-25T09:43:35.249Z,64.83
2018-11-25T09:46:06.530Z,61.03
2018-11-25T09:48:35.816Z,62.10
2018-11-25T09:51:05.102Z,61.50
2018-11-25T09:53:34.298Z,62.87
2018-11-25T09:56:04.450Z,62.17
2018-11-25T09:58:33.994Z,62.67
2018-11-25T10:01:03.235Z,63.90
2018-11-25T10:03:32.597Z,64.37
2018-11-25T10:06:01.974Z,64.13
2018-11-25T10:08:32.587Z,67.60
2018-11-25T10:11:01.780Z,61.67
2018-11-25T10:13:30.961Z,62.17
2018-11-25T10:16:00.175Z,63.83
2018-11-25T10:18:29.403Z,69.03
2018-11-25T10:20:59.535Z,63.80
2018-11-25T10:24:58.181Z,84.70
2018-11-25T10:27:27.380Z,70.10
2018-11-25T10:29:56.531Z,69.53
2018-11-25T10:32:28.294Z,74.00
2018-11-25T10:34:57.473Z,73.47
2018-11-25T10:37:26.689Z,73.57
2018-11-25T10:39:55.961Z,77.37
2018-11-25T10:42:25.582Z,73.93
2018-11-25T10:44:55.271Z,70.57
2018-11-25T10:47:24.618Z,75.60
2018-11-25T10:49:53.790Z,80.67
2018-11-25T10:52:22.966Z,78.80
2018-11-25T10:54:55.079Z,76.50
2018-11-25T10:57:24.255Z,83.33
2018-11-25T10:59:53.749Z,78.23
2018-11-25T11:02:28.091Z,79.00
2018-11-25T11:05:03.406Z,78.43
2018-11-25T11:07:38.247Z,84.07
2018-11-25T11:10:09.305Z,81.33
2018-11-25T11:12:38.479Z,79.90
2018-11-25T11:15:11.253Z,86.63
2018-11-25T11:17:40.410Z,83.93
2018-11-25T11:20:10.603Z,92.30
2018-11-25T11:22:39.842Z,83.63
2018-11-25T11:25:09.644Z,88.13
2018-11-25T11:27:39.273Z,90.83
2018-11-25T11:30:09.983Z,86.07
2018-11-25T11:32:41.291Z,94.57
2018-11-25T11:35:11.926Z,89.70
2018-11-25T11:37:41.531Z,97.77
2018-11-25T11:40:12.051Z,89.97
2018-11-25T11:42:41.253Z,97.83
2018-11-25T11:45:13.087Z,88.00
2018-11-25T11:47:44.717Z,96.77
2018-11-25T11:50:18.064Z,96.77
2018-11-25T11:52:47.342Z,96.73
2018-11-25T11:55:18.455Z,92.43
2018-11-25T11:57:48.712Z,98.60
2018-11-25T12:00:24.385Z,89.70
2018-11-25T12:02:54.102Z,90.27
2018-11-25T12:05:24.634Z,87.73
2018-11-25T12:07:54.214Z,90.40
2018-11-25T12:10:23.446Z,82.43
2018-11-25T12:12:52.957Z,91.93
2018-11-25T12:15:30.259Z,101.90
2018-11-25T12:17:54.214Z,100.37
2018-11-25T12:20:24.238Z,101.53
2018-11-25T12:22:55.437Z,94.93
2018-11-25T12:25:24.622Z,94.87
2018-11-25T12:27:54.654Z,97.37
2018-11-25T12:30:23.969Z,97.10
2018-11-25T12:32:53.243Z,89.97
2018-11-25T12:35:22.429Z,93.57
2018-11-25T12:37:51.769Z,90.07
2018-11-25T12:40:23.357Z,94.10
2018-11-25T12:42:53.890Z,99.40
2018-11-25T12:45:23.100Z,106.67
2018-11-25T12:47:52.326Z,94.57
2018-11-25T12:50:23.231Z,93.80
2018-11-25T12:52:52.867Z,96.50
2018-11-25T12:55:24.363Z,92.30
2018-11-25T12:57:53.958Z,92.87
2018-11-25T13:00:27.647Z,92.43
2018-11-25T13:02:57.225Z,104.83
2018-11-25T13:05:26.408Z,97.93
2018-11-25T13:07:55.731Z,92.60
2018-11-25T13:10:25.436Z,96.53
2018-11-25T13:12:55.123Z,98.13
2018-11-25T13:15:24.312Z,99.30
2018-11-25T13:17:53.543Z,97.27
2018-11-25T13:20:22.747Z,99.87
2018-11-25T13:22:54.553Z,95.60
2018-11-25T13:25:23.875Z,100.37
2018-11-25T13:27:53.116Z,105.00
2018-11-25T13:30:23.505Z,95.17
2018-11-25T13:32:54.917Z,105.17
2018-11-25T13:35:24.794Z,94.80
2018-11-25T13:37:53.995Z,94.43
2018-11-25T13:40:23.175Z,101.17
2018-11-25T13:42:52.406Z,94.60
2018-11-25T13:45:22.955Z,90.37
2018-11-25T13:47:52.145Z,94.27
2018-11-25T13:50:21.425Z,102.77
2018-11-25T13:52:50.581Z,94.37
2018-11-25T13:55:22.523Z,93.27
2018-11-25T13:57:52.305Z,93.80
2018-11-25T14:00:55.703Z,81.37
2018-11-25T14:03:32.624Z,85.23
2018-11-25T14:06:02.906Z,90.10
2018-11-25T14:08:32.321Z,88.63
2018-11-25T14:11:04.729Z,84.40
2018-11-25T14:13:34.333Z,88.40
2018-11-25T14:16:04.758Z,80.93
2018-11-25T14:18:34.509Z,80.70
2018-11-25T14:21:03.748Z,78.43
2018-11-25T14:23:32.938Z,92.27
2018-11-25T14:26:08.846Z,81.27
2018-11-25T14:28:38.018Z,75.90
2018-11-25T14:31:07.304Z,78.40
2018-11-25T14:33:37.166Z,78.93
2018-11-25T14:36:07.143Z,74.83
2018-11-25T14:38:36.829Z,75.60
2018-11-25T14:41:06.094Z,85.80
2018-11-25T14:43:35.303Z,73.23
2018-11-25T14:46:04.491Z,78.03
2018-11-25T14:48:34.634Z,80.50
2018-11-25T14:51:04.089Z,79.03
2018-11-25T14:53:33.265Z,76.77
2018-11-25T14:56:03.644Z,72.37
2018-11-25T14:58:32.831Z,70.67
2018-11-25T15:01:02.474Z,74.33
2018-11-25T15:03:32.662Z,70.77
2018-11-25T15:06:01.838Z,73.20
2018-11-25T15:08:31.142Z,71.40
2018-11-25T15:11:00.400Z,69.43
2018-11-25T15:13:32.188Z,73.83
2018-11-25T15:16:02.854Z,68.03
2018-11-25T15:18:32.036Z,70.90
2018-11-25T15:21:01.330Z,65.50
2018-11-25T15:23:31.054Z,63.90
2018-11-25T15:26:00.782Z,64.03
2018-11-25T15:28:29.976Z,64.10
2018-11-25T15:30:59.552Z,61.80
2018-11-25T15:33:28.736Z,62.77
2018-11-25T15:35:59.638Z,59.67
2018-11-25T15:38:28.862Z,57.50
2018-11-25T15:40:58.048Z,60.90
2018-11-25T15:43:27.225Z,60.83
2018-11-25T15:45:56.421Z,55.20
2018-11-25T15:48:28.392Z,58.07
2018-11-25T15:50:58.651Z,56.63
2018-11-25T15:53:27.839Z,50.50
2018-11-25T15:56:00.062Z,49.67
2018-11-25T15:58:31.400Z,48.97
2018-11-25T16:01:00.612Z,43.37
2018-11-25T16:03:29.817Z,48.57
2018-11-25T16:06:03.043Z,48.83
2018-11-25T16:08:38.209Z,43.33
2018-11-25T16:11:04.167Z,40.37
2018-11-25T16:13:33.304Z,39.57
2018-11-25T16:16:02.610Z,40.00
2018-11-25T16:18:31.782Z,43.90
2018-11-25T16:21:02.470Z,39.53
2018-11-25T16:23:31.687Z,43.23
2018-11-25T16:26:03.777Z,44.07
2018-11-25T16:28:38.132Z,38.00
2018-11-25T16:31:08.331Z,39.30
2018-11-25T16:33:37.550Z,38.03
2018-11-25T16:36:07.147Z,37.10
2018-11-25T16:38:36.360Z,34.10
2018-11-25T16:41:06.234Z,37.23
2018-11-25T16:43:37.129Z,40.73
2018-11-25T16:46:06.373Z,35.30
2018-11-25T16:48:35.561Z,39.33
2018-11-25T16:51:04.874Z,42.10
2018-11-25T16:53:34.057Z,38.03
2018-11-25T16:56:04.242Z,38.43
2018-11-25T16:58:34.193Z,40.37
2018-11-25T17:01:09.788Z,42.67
2018-11-25T17:03:32.634Z,42.47
2018-11-25T17:06:02.754Z,44.27
2018-11-25T17:08:36.466Z,41.53
2018-11-25T17:11:06.550Z,47.00
2018-11-25T17:13:35.678Z,45.93
2018-11-25T17:16:05.181Z,42.53
2018-11-25T17:18:35.043Z,41.70
2018-11-25T17:21:04.649Z,42.27
2018-11-25T17:23:33.877Z,42.47
2018-11-25T17:26:03.131Z,39.93
2018-11-25T17:28:32.289Z,39.57
2018-11-25T17:31:02.780Z,43.67
2018-11-25T17:33:33.006Z,38.90
2018-11-25T17:36:02.183Z,38.23
2018-11-25T17:38:31.382Z,39.67
2018-11-25T17:41:00.599Z,37.27
2018-11-25T17:43:30.227Z,36.87
2018-11-25T17:45:59.851Z,35.37
2018-11-25T17:48:29.047Z,35.40
2018-11-25T17:50:58.250Z,35.17
2018-11-25T17:53:27.460Z,33.60
2018-11-25T17:55:59.565Z,35.67
2018-11-25T17:58:29.097Z,34.13
2018-11-25T18:01:06.851Z,34.87
2018-11-25T18:03:37.385Z,35.63
2018-11-25T18:06:07.700Z,35.70
2018-11-25T18:08:37.264Z,34.00
2018-11-25T18:11:06.491Z,35.13
2018-11-25T18:13:39.640Z,34.70
2018-11-25T18:16:11.597Z,35.60
2018-11-25T18:18:43.882Z,33.63
2018-11-25T18:21:17.125Z,33.40
2018-11-25T18:23:46.428Z,34.90
2018-11-25T18:26:16.068Z,34.57
2018-11-25T18:28:45.779Z,38.30
2018-11-25T18:31:15.021Z,35.23
2018-11-25T18:33:44.249Z,34.90
2018-11-25T18:36:14.410Z,38.27
2018-11-25T18:38:45.346Z,36.10
2018-11-25T18:41:15.015Z,35.73
2018-11-25T18:43:44.219Z,33.13
2018-11-25T18:46:14.707Z,30.70
2018-11-25T18:48:46.456Z,33.40
2018-11-25T18:51:15.706Z,31.37
2018-11-25T18:53:45.301Z,30.07
2018-11-25T18:56:14.529Z,27.33
2018-11-25T18:58:43.817Z,27.87
2018-11-25T19:01:39.288Z,29.37
2018-11-25T19:04:09.438Z,29.27
2018-11-25T19:06:39.230Z,28.13
2018-11-25T19:09:10.319Z,29.93
2018-11-25T19:11:40.009Z,26.10
2018-11-25T19:14:09.238Z,26.97
2018-11-25T19:16:39.186Z,26.93
2018-11-25T19:19:08.407Z,27.20
2018-11-25T19:21:37.625Z,27.63
2018-11-25T19:24:08.950Z,28.67
2018-11-25T19:26:38.134Z,25.63
2018-11-25T19:29:07.720Z,28.33
2018-11-25T19:31:37.062Z,26.40
2018-11-25T19:34:06.780Z,24.90
2018-11-25T19:36:36.369Z,28.40
2018-11-25T19:39:08.966Z,26.40
2018-11-25T19:41:38.146Z,26.20
2018-11-25T19:44:07.824Z,28.40
2018-11-25T19:46:38.952Z,25.77
2018-11-25T19:49:08.128Z,24.23
2018-11-25T19:51:37.350Z,26.50
2018-11-25T19:54:06.639Z,25.63
2018-11-25T19:56:36.770Z,25.13
2018-11-25T19:59:06.513Z,22.67
2018-11-25T20:01:35.845Z,27.03
2018-11-25T20:04:05.635Z,22.97
2018-11-25T20:06:34.828Z,27.27
2018-11-25T20:09:09.050Z,25.67
2018-11-25T20:11:38.413Z,24.33
2018-11-25T20:14:07.614Z,25.87
2018-11-25T20:16:43.323Z,24.83
2018-11-25T20:19:13.412Z,25.33
2018-11-25T20:21:47.681Z,22.07
2018-11-25T20:24:16.904Z,28.70
2018-11-25T20:26:51.375Z,24.10
2018-11-25T20:29:22.926Z,23.43
2018-11-25T20:31:58.542Z,27.00
2018-11-25T20:34:27.786Z,28.87
2018-11-25T20:36:57.905Z,35.77
2018-11-25T20:39:31.357Z,35.30
2018-11-25T20:42:00.529Z,37.90
2018-11-25T20:44:29.708Z,46.87
2018-11-25T20:47:09.246Z,42.80
2018-11-25T20:49:40.589Z,46.20
2018-11-25T20:52:15.123Z,43.77
2018-11-25T20:54:44.402Z,53.37
2018-11-25T20:57:13.621Z,54.00
2018-11-25T20:59:43.819Z,55.00
2018-11-25T21:02:19.960Z,51.83
2018-11-25T21:04:42.257Z,44.07
2018-11-25T21:07:11.520Z,35.93
2018-11-25T21:09:41.280Z,31.33
2018-11-25T21:12:11.501Z,28.63
2018-11-25T21:14:40.817Z,31.87
2018-11-25T21:17:09.991Z,31.90
2018-11-25T21:19:39.194Z,34.57
2018-11-25T21:22:09.735Z,33.53
2018-11-25T21:24:39.986Z,29.63
2018-11-25T21:27:09.199Z,28.33
2018-11-25T21:29:38.649Z,29.10
2018-11-25T21:32:07.852Z,28.60
2018-11-25T21:34:37.049Z,26.60
2018-11-25T21:37:08.441Z,26.03
2018-11-25T21:39:37.625Z,26.37
2018-11-25T21:42:06.841Z,27.43
2018-11-25T21:44:36.075Z,27.30
2018-11-25T21:47:05.278Z,25.63
2018-11-25T21:49:35.295Z,27.07
2018-11-25T21:52:05.591Z,27.83
2018-11-25T21:54:34.753Z,25.63
2018-11-25T21:57:03.937Z,26.03
2018-11-25T21:59:33.222Z,25.93
2018-11-25T22:02:03.953Z,28.63
2018-11-25T22:04:33.125Z,27.97
2018-11-25T22:07:02.325Z,25.47
2018-11-25T22:09:31.588Z,25.90
2018-11-25T22:12:01.169Z,25.67
2018-11-25T22:14:31.920Z,25.20
2018-11-25T22:17:01.070Z,26.60
2018-11-25T22:19:30.270Z,24.60
2018-11-25T22:21:59.585Z,26.07
2018-11-25T22:24:28.773Z,27.77
2018-11-25T22:26:59.301Z,25.03
2018-11-25T22:29:28.506Z,25.50
2018-11-25T22:31:57.695Z,29.00
2018-11-25T22:34:26.922Z,26.17
2018-11-25T22:36:56.133Z,27.70
2018-11-25T22:39:26.167Z,23.93
2018-11-25T22:41:55.366Z,29.57
2018-11-25T22:44:25.180Z,27.03
2018-11-25T22:46:54.354Z,28.00
2018-11-25T22:49:23.681Z,26.13
2018-11-25T22:51:56.389Z,27.53
2018-11-25T22:54:25.564Z,25.30
2018-11-25T22:56:54.742Z,27.07
2018-11-25T22:59:24.038Z,27.30
2018-11-25T23:01:53.759Z,27.27
2018-11-25T23:04:35.366Z,27.63
2018-11-25T23:07:04.838Z,26.77
2018-11-25T23:09:34.026Z,25.47
2018-11-25T23:12:03.989Z,27.17
2018-11-25T23:14:33.207Z,26.10
2018-11-25T23:17:02.444Z,26.67
2018-11-25T23:19:31.650Z,25.80
2018-11-25T23:22:00.831Z,27.43
2018-11-25T23:24:30.879Z,28.03
2018-11-25T23:27:00.616Z,29.23
2018-11-25T23:29:29.807Z,26.50
2018-11-25T23:31:59.200Z,27.77
2018-11-25T23:34:28.790Z,27.00
2018-11-25T23:36:59.466Z,26.20
2018-11-25T23:39:28.652Z,28.13
2018-11-25T23:41:57.913Z,27.07
2018-11-25T23:44:27.234Z,26.53
2018-11-25T23:46:56.405Z,27.37
2018-11-25T23:49:26.470Z,28.03
2018-11-25T23:51:55.646Z,28.47
2018-11-25T23:54:24.838Z,27.27
2018-11-25T23:56:54.177Z,25.90
2018-11-25T23:59:23.365Z,28.67
